Time;durP1;ratioP1;P1;durP2;ratioP2;P2;SDS_P1;SDS_P2;PMS_P1;PMS_P2;Temp;Humidity;BMP_temperature;BMP_pressure;BME280_temperature;BME280_humidity;BME280_pressure;Samples;Min_cycle;Max_cycle;Signal;HPM_P1;HPM_P2
2021/12/20 00:01:07;;;;;;;11.52;10.32;;;;;;;;;;10250901;28;20073;-57
2021/12/20 00:06:07;;;;;;;13.40;10.80;;;;;;;;;;10243098;28;20076;-56
2021/12/20 00:11:05;;;;;;;12.88;10.57;;;;;;;;;;10243326;28;20088;-53
2021/12/20 00:16:04;;;;;;;15.45;10.57;;;;;;;;;;10233102;28;20077;-56
2021/12/20 00:21:02;;;;;;;12.05;10.25;;;;;;;;;;10232301;28;20534;-56
2021/12/20 00:26:02;;;;;;;19.02;12.45;;;;;;;;;;10250394;28;20068;-57
2021/12/20 00:31:00;;;;;;;16.08;11.75;;;;;;;;;;10242687;28;20083;-57
2021/12/20 00:35:58;;;;;;;17.05;12.90;;;;;;;;;;10231884;28;20068;-56
2021/12/20 00:40:57;;;;;;;16.40;13.43;;;;;;;;;;10232381;28;20138;-52
2021/12/20 00:45:56;;;;;;;15.95;12.30;;;;;;;;;;10232136;28;20080;-57
2021/12/20 00:50:55;;;;;;;15.38;12.65;;;;;;;;;;10231694;28;20075;-57
2021/12/20 00:55:53;;;;;;;15.85;12.68;;;;;;;;;;10270412;28;20045;-55
2021/12/20 01:00:52;;;;;;;13.30;11.63;;;;;;;;;;10232140;28;20085;-57
2021/12/20 01:05:52;;;;;;;14.88;12.45;;;;;;;;;;10231417;28;20077;-57
2021/12/20 01:10:53;;;;;;;16.73;12.05;;;;;;;;;;10244410;28;20089;-56
2021/12/20 01:15:54;;;;;;;15.48;12.77;;;;;;;;;;10235039;28;20076;-58
2021/12/20 01:20:53;;;;;;;14.15;11.98;;;;;;;;;;10239075;28;20077;-58
2021/12/20 01:25:52;;;;;;;17.73;12.90;;;;;;;;;;10238941;28;20073;-57
2021/12/20 01:30:50;;;;;;;17.90;13.25;;;;;;;;;;10248899;28;20072;-57
2021/12/20 01:35:49;;;;;;;19.63;14.05;;;;;;;;;;10238745;28;20073;-57
2021/12/20 01:40:48;;;;;;;16.48;13.13;;;;;;;;;;10238193;28;20115;-57
2021/12/20 01:45:49;;;;;;;15.80;12.43;;;;;;;;;;10238669;28;20048;-57
2021/12/20 01:56:05;;;;;;;15.52;11.10;;;;;;;;;;10237669;28;20085;-57
2021/12/20 02:01:22;;;;;;;15.48;13.23;;;;;;;;;;10237430;28;20088;-57
2021/12/20 02:06:26;;;;;;;15.63;12.68;;;;;;;;;;10272839;28;20525;-56
2021/12/20 02:11:26;;;;;;;14.85;12.48;;;;;;;;;;10276814;28;20454;-57
2021/12/20 02:16:25;;;;;;;18.27;14.30;;;;;;;;;;10275789;28;20053;-58
2021/12/20 02:21:24;;;;;;;16.10;13.23;;;;;;;;;;10255272;28;20184;-56
2021/12/20 02:26:23;;;;;;;16.13;11.60;;;;;;;;;;10246810;28;20080;-58
2021/12/20 02:37:02;;;;;;;14.80;11.43;;;;;;;;;;10246823;28;20096;-57
2021/12/20 02:42:00;;;;;;;14.85;11.75;;;;;;;;;;10246840;28;20574;-53
2021/12/20 02:47:09;;;;;;;14.98;10.10;;;;;;;;;;10236290;28;20073;-58
2021/12/20 02:52:09;;;;;;;10.85;9.73;;;;;;;;;;10236219;28;20422;-58
2021/12/20 02:57:07;;;;;;;11.23;9.18;;;;;;;;;;10235799;28;20085;-57
2021/12/20 03:02:06;;;;;;;13.93;10.02;;;;;;;;;;10235917;28;20092;-59
2021/12/20 03:07:06;;;;;;;13.50;10.38;;;;;;;;;;10249192;28;20087;-58
2021/12/20 03:12:08;;;;;;;10.85;9.18;;;;;;;;;;10235705;28;20100;-58
2021/12/20 03:17:07;;;;;;;10.35;7.90;;;;;;;;;;10234880;28;20080;-55
2021/12/20 03:22:06;;;;;;;10.07;8.50;;;;;;;;;;10244702;28;20076;-58
2021/12/20 03:27:06;;;;;;;11.70;8.77;;;;;;;;;;10234795;28;20076;-57
2021/12/20 03:32:05;;;;;;;9.88;7.95;;;;;;;;;;10234491;28;20526;-57
2021/12/20 03:37:03;;;;;;;10.45;9.35;;;;;;;;;;10248064;28;20049;-57
2021/12/20 03:42:02;;;;;;;8.85;7.63;;;;;;;;;;10234012;28;20081;-57
2021/12/20 03:47:01;;;;;;;10.20;9.07;;;;;;;;;;10273174;28;20353;-58
2021/12/20 03:52:00;;;;;;;11.73;8.43;;;;;;;;;;10247096;28;20104;-57
2021/12/20 03:56:59;;;;;;;22.73;14.60;;;;;;;;;;10272624;28;20438;-56
2021/12/20 04:01:57;;;;;;;22.40;14.77;;;;;;;;;;10233308;28;20076;-57
2021/12/20 04:06:57;;;;;;;14.65;11.43;;;;;;;;;;10246451;28;20100;-59
2021/12/20 04:11:55;;;;;;;35.78;22.05;;;;;;;;;;10233219;28;20065;-59
2021/12/20 04:16:53;;;;;;;17.80;12.77;;;;;;;;;;10232858;28;20063;-59
2021/12/20 04:21:52;;;;;;;14.70;10.23;;;;;;;;;;10232560;28;20458;-58
2021/12/20 04:26:51;;;;;;;15.30;12.02;;;;;;;;;;10232311;28;20502;-57
2021/12/20 04:31:50;;;;;;;18.30;13.27;;;;;;;;;;10245878;28;20053;-58
2021/12/20 04:36:48;;;;;;;18.08;14.40;;;;;;;;;;10232063;28;20068;-59
2021/12/20 04:41:46;;;;;;;18.08;13.25;;;;;;;;;;10232048;28;20077;-59
2021/12/20 04:46:46;;;;;;;20.10;14.18;;;;;;;;;;10231943;28;20080;-59
2021/12/20 04:51:44;;;;;;;33.28;20.77;;;;;;;;;;10232263;28;20108;-59
2021/12/20 04:56:48;;;;;;;21.33;14.63;;;;;;;;;;10241784;28;20080;-58
2021/12/20 05:01:48;;;;;;;19.02;13.85;;;;;;;;;;10241636;28;20077;-59
2021/12/20 05:06:48;;;;;;;32.60;20.10;;;;;;;;;;10231890;28;20065;-55
2021/12/20 05:11:50;;;;;;;28.23;18.80;;;;;;;;;;10231853;28;20076;-57
2021/12/20 05:16:50;;;;;;;51.30;27.65;;;;;;;;;;10229901;28;20423;-58
2021/12/20 05:21:48;;;;;;;30.63;16.23;;;;;;;;;;10241302;28;20129;-57
2021/12/20 05:26:48;;;;;;;39.83;22.55;;;;;;;;;;10231232;28;20033;-57
2021/12/20 05:31:47;;;;;;;32.88;19.42;;;;;;;;;;10230952;28;20104;-59
2021/12/20 05:36:46;;;;;;;38.72;22.60;;;;;;;;;;10230777;28;20073;-58
2021/12/20 05:41:45;;;;;;;37.55;22.27;;;;;;;;;;10236622;28;20089;-58
2021/12/20 05:46:43;;;;;;;31.98;20.35;;;;;;;;;;10230356;28;20073;-57
2021/12/20 05:51:41;;;;;;;23.33;15.43;;;;;;;;;;10230874;28;20298;-58
2021/12/20 05:56:41;;;;;;;28.13;19.65;;;;;;;;;;10240736;28;20088;-58
2021/12/20 06:01:40;;;;;;;35.25;24.08;;;;;;;;;;10233398;28;20081;-58
2021/12/20 06:06:38;;;;;;;27.55;19.65;;;;;;;;;;10236392;28;20069;-55
2021/12/20 06:11:36;;;;;;;23.70;16.80;;;;;;;;;;10248850;28;20127;-58
2021/12/20 06:16:36;;;;;;;20.67;16.52;;;;;;;;;;10247195;28;20073;-57
2021/12/20 06:21:34;;;;;;;32.60;23.02;;;;;;;;;;10234097;28;20495;-57
2021/12/20 06:26:33;;;;;;;28.17;21.00;;;;;;;;;;10233147;28;20072;-57
2021/12/20 06:31:31;;;;;;;22.52;16.45;;;;;;;;;;10243799;28;20076;-57
2021/12/20 06:36:31;;;;;;;31.63;19.73;;;;;;;;;;10247809;28;20129;-57
2021/12/20 06:41:29;;;;;;;34.53;20.70;;;;;;;;;;10243553;28;20065;-57
2021/12/20 06:46:27;;;;;;;24.52;18.05;;;;;;;;;;10242082;28;20072;-57
2021/12/20 06:51:26;;;;;;;21.55;15.13;;;;;;;;;;10238728;28;20422;-58
2021/12/20 06:56:26;;;;;;;20.55;16.30;;;;;;;;;;10520384;22;20054;-56
2021/12/20 07:01:24;;;;;;;21.38;16.15;;;;;;;;;;10154425;28;20137;-57
2021/12/20 07:06:22;;;;;;;18.95;15.50;;;;;;;;;;10153136;28;20066;-56
2021/12/20 07:11:21;;;;;;;17.98;14.88;;;;;;;;;;10161691;28;20436;-56
2021/12/20 07:16:21;;;;;;;19.92;13.73;;;;;;;;;;10155981;28;20105;-57
2021/12/20 07:21:20;;;;;;;20.83;16.10;;;;;;;;;;10152915;28;20076;-57
2021/12/20 07:26:18;;;;;;;18.70;15.05;;;;;;;;;;10151231;28;20069;-55
2021/12/20 07:31:16;;;;;;;14.68;13.13;;;;;;;;;;10152358;28;20165;-58
2021/12/20 07:36:19;;;;;;;14.70;13.10;;;;;;;;;;10155959;28;20084;-56
2021/12/20 07:41:18;;;;;;;19.95;15.55;;;;;;;;;;10152097;28;20106;-57
2021/12/20 07:46:17;;;;;;;15.18;13.52;;;;;;;;;;10154075;28;20085;-57
2021/12/20 07:51:17;;;;;;;18.90;15.82;;;;;;;;;;10155829;28;20481;-56
2021/12/20 07:56:17;;;;;;;19.73;14.88;;;;;;;;;;10148201;28;20078;-55
2021/12/20 08:01:16;;;;;;;19.10;13.13;;;;;;;;;;10151324;28;20418;-56
2021/12/20 08:06:15;;;;;;;22.10;16.50;;;;;;;;;;10150004;28;20074;-54
2021/12/20 08:11:14;;;;;;;16.35;13.48;;;;;;;;;;10146873;28;20081;-56
2021/12/20 08:16:12;;;;;;;13.90;11.82;;;;;;;;;;10150411;28;20073;-56
2021/12/20 08:21:11;;;;;;;15.73;11.57;;;;;;;;;;10153997;28;20066;-57
2021/12/20 08:26:10;;;;;;;10.07;9.05;;;;;;;;;;10152366;28;20073;-56
2021/12/20 08:31:10;;;;;;;15.70;13.65;;;;;;;;;;10151801;28;20066;-53
2021/12/20 08:36:12;;;;;;;16.27;13.93;;;;;;;;;;10151349;28;20068;-56
2021/12/20 08:41:11;;;;;;;16.20;14.38;;;;;;;;;;10150913;28;20085;-52
2021/12/20 08:46:13;;;;;;;19.67;16.40;;;;;;;;;;10151307;28;20471;-57
2021/12/20 08:51:11;;;;;;;19.92;15.88;;;;;;;;;;10150548;28;20614;-56
2021/12/20 08:56:11;;;;;;;14.25;12.75;;;;;;;;;;10150477;28;20081;-56
2021/12/20 09:01:10;;;;;;;13.95;12.18;;;;;;;;;;10151740;28;20081;-58
2021/12/20 09:06:08;;;;;;;9.57;8.57;;;;;;;;;;10151005;28;20070;-55
2021/12/20 09:11:07;;;;;;;24.98;14.85;;;;;;;;;;10153341;28;20081;-56
2021/12/20 09:16:05;;;;;;;13.68;11.63;;;;;;;;;;10151472;28;20100;-56
2021/12/20 09:21:04;;;;;;;9.05;8.10;;;;;;;;;;10151021;28;20112;-54
2021/12/20 09:26:03;;;;;;;13.90;10.57;;;;;;;;;;10151200;28;20062;-57
2021/12/20 09:31:01;;;;;;;16.88;11.77;;;;;;;;;;10150866;28;20078;-56
2021/12/20 09:36:00;;;;;;;16.20;10.43;;;;;;;;;;10151790;28;20092;-57
2021/12/20 09:41:28;;;;;;;13.43;11.18;;;;;;;;;;10157873;28;20066;-57
2021/12/20 09:46:28;;;;;;;7.90;7.03;;;;;;;;;;10160149;28;20074;-58
2021/12/20 09:51:27;;;;;;;13.30;10.55;;;;;;;;;;10158020;28;20077;-57
2021/12/20 09:56:27;;;;;;;8.70;6.90;;;;;;;;;;10157871;28;20452;-56
2021/12/20 10:01:27;;;;;;;7.82;7.00;;;;;;;;;;10158342;28;20089;-59
2021/12/20 10:06:26;;;;;;;8.02;7.18;;;;;;;;;;10157229;28;20499;-60
2021/12/20 10:11:25;;;;;;;7.40;6.57;;;;;;;;;;10158336;28;20078;-58
2021/12/20 10:16:24;;;;;;;15.93;11.02;;;;;;;;;;10158777;28;20077;-58
2021/12/20 10:21:33;;;;;;;8.60;6.35;;;;;;;;;;10159352;28;20137;-57
2021/12/20 10:26:39;;;;;;;12.93;9.38;;;;;;;;;;10157297;28;20080;-57
2021/12/20 10:31:38;;;;;;;14.65;10.25;;;;;;;;;;10156639;28;20073;-57
2021/12/20 10:36:36;;;;;;;11.52;9.55;;;;;;;;;;10155657;28;20066;-56
2021/12/20 10:41:37;;;;;;;15.73;12.93;;;;;;;;;;10152803;28;20577;-57
2021/12/20 10:46:36;;;;;;;6.72;6.07;;;;;;;;;;10156169;28;20509;-57
2021/12/20 10:51:36;;;;;;;12.30;7.97;;;;;;;;;;10155498;28;20097;-57
2021/12/20 10:56:39;;;;;;;13.85;10.93;;;;;;;;;;10153577;28;20135;-57
2021/12/20 11:02:29;;;;;;;14.32;10.75;;;;;;;;;;10153704;28;20054;-57
2021/12/20 11:12:34;;;;;;;12.35;10.00;;;;;;;;;;10152737;28;20078;-56
2021/12/20 11:17:33;;;;;;;13.07;10.27;;;;;;;;;;10154965;28;20066;-56
2021/12/20 11:22:33;;;;;;;23.15;19.60;;;;;;;;;;10153700;28;20073;-55
2021/12/20 11:27:33;;;;;;;26.52;19.27;;;;;;;;;;10154449;28;20073;-55
2021/12/20 11:32:34;;;;;;;29.98;20.48;;;;;;;;;;10157052;28;20077;-56
2021/12/20 11:37:34;;;;;;;42.55;24.63;;;;;;;;;;10152611;28;20054;-59
2021/12/20 11:42:32;;;;;;;57.58;32.92;;;;;;;;;;10151628;28;20085;-54
2021/12/20 11:47:31;;;;;;;41.85;25.20;;;;;;;;;;10151851;28;20569;-57
2021/12/20 11:52:31;;;;;;;37.47;21.88;;;;;;;;;;10152756;28;20511;-58
2021/12/20 11:57:35;;;;;;;39.05;24.85;;;;;;;;;;10154534;28;20066;-57
2021/12/20 12:02:33;;;;;;;34.97;21.90;;;;;;;;;;10154802;28;20078;-58
2021/12/20 12:07:35;;;;;;;33.58;22.08;;;;;;;;;;10153953;28;20077;-56
2021/12/20 12:12:40;;;;;;;24.08;17.85;;;;;;;;;;10154321;28;20071;-58
2021/12/20 12:17:55;;;;;;;22.38;15.65;;;;;;;;;;10153727;28;20062;-58
2021/12/20 12:22:53;;;;;;;18.63;13.00;;;;;;;;;;10153404;28;20070;-56
2021/12/20 12:27:57;;;;;;;20.00;12.57;;;;;;;;;;10152203;28;20076;-56
2021/12/20 12:33:15;;;;;;;17.80;13.93;;;;;;;;;;10154767;28;20072;-56
2021/12/20 12:38:14;;;;;;;13.35;9.60;;;;;;;;;;10153819;28;20050;-58
2021/12/20 12:43:15;;;;;;;20.48;14.35;;;;;;;;;;10153112;28;20084;-57
2021/12/20 12:48:28;;;;;;;12.95;8.63;;;;;;;;;;10153059;28;20539;-55
2021/12/20 12:53:37;;;;;;;16.55;11.98;;;;;;;;;;10152669;28;20113;-56
2021/12/20 12:58:37;;;;;;;12.73;8.90;;;;;;;;;;10151748;28;20073;-56
2021/12/20 13:03:35;;;;;;;13.35;10.38;;;;;;;;;;10150980;28;20110;-55
2021/12/20 13:08:34;;;;;;;21.35;13.65;;;;;;;;;;10141431;28;20084;-55
2021/12/20 13:13:41;;;;;;;33.35;22.73;;;;;;;;;;10158381;28;20080;-56
2021/12/20 13:18:42;;;;;;;15.50;12.68;;;;;;;;;;10158720;28;20078;-57
2021/12/20 13:23:46;;;;;;;32.85;19.63;;;;;;;;;;10159661;28;20058;-56
2021/12/20 13:28:45;;;;;;;25.65;17.90;;;;;;;;;;10160524;28;20082;-56
2021/12/20 13:33:46;;;;;;;18.67;11.88;;;;;;;;;;10160487;28;20148;-51
2021/12/20 13:38:45;;;;;;;16.38;12.95;;;;;;;;;;10158809;28;20077;-57
2021/12/20 13:43:45;;;;;;;11.82;10.02;;;;;;;;;;10158570;28;20062;-57
2021/12/20 13:48:51;;;;;;;16.35;12.55;;;;;;;;;;10158539;28;20077;-57
2021/12/20 13:53:50;;;;;;;13.70;9.38;;;;;;;;;;10157203;28;20103;-56
2021/12/20 13:58:49;;;;;;;27.33;19.92;;;;;;;;;;10157387;28;20142;-55
2021/12/20 14:03:47;;;;;;;19.25;14.52;;;;;;;;;;10156686;28;20070;-56
2021/12/20 14:09:03;;;;;;;26.02;16.63;;;;;;;;;;10156116;28;20475;-57
2021/12/20 14:14:08;;;;;;;33.15;21.58;;;;;;;;;;10154210;28;20084;-56
2021/12/20 14:19:42;;;;;;;16.33;13.85;;;;;;;;;;10153795;28;20070;-56
2021/12/20 14:24:41;;;;;;;23.38;16.30;;;;;;;;;;10151126;28;20157;-55
2021/12/20 14:29:39;;;;;;;14.63;11.30;;;;;;;;;;10153192;28;20062;-56
2021/12/20 14:34:38;;;;;;;27.73;19.70;;;;;;;;;;10154789;28;20081;-54
2021/12/20 14:39:43;;;;;;;16.83;14.63;;;;;;;;;;10154360;28;20871;-56
2021/12/20 14:44:45;;;;;;;16.08;12.93;;;;;;;;;;10155142;28;20073;-57
2021/12/20 14:49:48;;;;;;;15.95;9.50;;;;;;;;;;10149297;28;20073;-57
2021/12/20 14:54:49;;;;;;;9.23;7.50;;;;;;;;;;10152656;28;20078;-57
2021/12/20 14:59:51;;;;;;;19.00;12.57;;;;;;;;;;10152956;28;20062;-56
2021/12/20 15:04:49;;;;;;;12.60;10.30;;;;;;;;;;10152571;28;20096;-55
2021/12/20 15:09:49;;;;;;;75.88;42.75;;;;;;;;;;10152427;28;20096;-58
2021/12/20 15:14:47;;;;;;;132.70;66.40;;;;;;;;;;10152730;28;20073;-56
2021/12/20 15:19:45;;;;;;;41.67;28.50;;;;;;;;;;10151958;28;20107;-54
2021/12/20 15:24:44;;;;;;;42.95;30.58;;;;;;;;;;10149736;28;20074;-56
2021/12/20 15:29:44;;;;;;;10.75;7.43;;;;;;;;;;10149805;28;20491;-56
2021/12/20 15:34:43;;;;;;;10.27;8.88;;;;;;;;;;10149117;28;20070;-56
2021/12/20 15:39:41;;;;;;;55.42;27.83;;;;;;;;;;10148058;28;20492;-55
2021/12/20 15:44:39;;;;;;;105.80;48.85;;;;;;;;;;10150487;28;20184;-56
2021/12/20 15:49:39;;;;;;;45.45;23.35;;;;;;;;;;10152774;28;20078;-57
2021/12/20 15:54:37;;;;;;;53.45;32.85;;;;;;;;;;10152648;28;20089;-56
2021/12/20 15:59:36;;;;;;;74.57;43.17;;;;;;;;;;10150206;28;20066;-55
2021/12/20 16:04:35;;;;;;;35.50;24.13;;;;;;;;;;10148368;28;20563;-56
2021/12/20 16:09:34;;;;;;;31.73;21.95;;;;;;;;;;10154128;28;20512;-54
2021/12/20 16:14:33;;;;;;;30.80;18.65;;;;;;;;;;10154199;28;20069;-55
2021/12/20 16:19:31;;;;;;;22.55;17.02;;;;;;;;;;10152510;28;20062;-57
2021/12/20 16:24:29;;;;;;;14.77;11.60;;;;;;;;;;10151193;28;20074;-51
2021/12/20 16:29:29;;;;;;;27.17;20.40;;;;;;;;;;10156936;28;20066;-56
2021/12/20 16:34:27;;;;;;;24.38;18.58;;;;;;;;;;10149602;28;20077;-55
2021/12/20 16:39:27;;;;;;;73.50;48.28;;;;;;;;;;10149924;28;20077;-59
2021/12/20 16:44:25;;;;;;;67.10;39.50;;;;;;;;;;10149650;28;20074;-58
2021/12/20 16:49:26;;;;;;;55.97;32.90;;;;;;;;;;10149015;28;20483;-59
2021/12/20 16:54:39;;;;;;;49.22;30.52;;;;;;;;;;10148821;28;20341;-57
2021/12/20 16:59:38;;;;;;;90.72;51.72;;;;;;;;;;10149351;28;20081;-58
2021/12/20 17:04:43;;;;;;;;;;;;;;;;;;10149667;28;20069;-57
2021/12/20 17:09:43;;;;;;;41.13;27.50;;;;;;;;;;10147495;28;19949;-58
2021/12/20 17:14:41;;;;;;;43.40;29.27;;;;;;;;;;10149203;28;20062;-58
2021/12/20 17:19:40;;;;;;;107.38;56.33;;;;;;;;;;10143414;28;20070;-56
2021/12/20 17:24:38;;;;;;;80.30;35.35;;;;;;;;;;10150774;28;20070;-57
2021/12/20 17:29:38;;;;;;;24.45;17.55;;;;;;;;;;10143706;28;21322;-58
2021/12/20 17:34:36;;;;;;;19.23;15.52;;;;;;;;;;10147065;28;20535;-57
2021/12/20 17:39:35;;;;;;;21.42;13.10;;;;;;;;;;10148231;28;20276;-58
2021/12/20 17:44:33;;;;;;;117.68;59.60;;;;;;;;;;10137219;28;20081;-56
2021/12/20 17:49:33;;;;;;;26.58;15.93;;;;;;;;;;10143521;28;20504;-57
2021/12/20 17:54:31;;;;;;;10.40;7.93;;;;;;;;;;10139538;28;20080;-57
2021/12/20 17:59:29;;;;;;;12.73;8.65;;;;;;;;;;10143913;28;20074;-55
2021/12/20 18:04:28;;;;;;;100.25;47.97;;;;;;;;;;10152124;28;20510;-57
2021/12/20 18:09:27;;;;;;;22.13;13.95;;;;;;;;;;10153435;28;20066;-56
2021/12/20 18:14:26;;;;;;;25.30;16.25;;;;;;;;;;10156428;28;20070;-58
2021/12/20 18:19:24;;;;;;;21.02;15.85;;;;;;;;;;10156750;28;20058;-57
2021/12/20 18:24:22;;;;;;;19.48;15.43;;;;;;;;;;10152030;28;20069;-57
2021/12/20 18:29:22;;;;;;;16.23;11.18;;;;;;;;;;10145816;28;20496;-58
2021/12/20 18:34:20;;;;;;;13.95;11.18;;;;;;;;;;10144575;28;20074;-56
2021/12/20 18:39:18;;;;;;;22.13;16.50;;;;;;;;;;10149740;28;20093;-56
2021/12/20 18:44:16;;;;;;;20.42;16.20;;;;;;;;;;10148676;28;20154;-55
2021/12/20 18:49:16;;;;;;;34.20;25.30;;;;;;;;;;10152197;28;20073;-56
2021/12/20 18:54:14;;;;;;;36.10;24.85;;;;;;;;;;10151396;28;20082;-57
2021/12/20 18:59:12;;;;;;;43.55;29.58;;;;;;;;;;10149876;28;20070;-56
2021/12/20 19:04:11;;;;;;;59.17;34.20;;;;;;;;;;10151260;28;20066;-56
2021/12/20 19:09:12;;;;;;;29.88;20.73;;;;;;;;;;10153950;28;20074;-57
2021/12/20 19:14:10;;;;;;;11.35;9.18;;;;;;;;;;10152871;28;20070;-58
2021/12/20 19:19:09;;;;;;;13.82;10.68;;;;;;;;;;10158300;28;20546;-56
2021/12/20 19:24:08;;;;;;;11.52;9.63;;;;;;;;;;10151172;28;20507;-57
2021/12/20 19:29:09;;;;;;;10.20;8.60;;;;;;;;;;10142564;28;20062;-57
2021/12/20 19:34:08;;;;;;;10.32;8.75;;;;;;;;;;10153490;28;20066;-56
2021/12/20 19:39:07;;;;;;;18.73;13.00;;;;;;;;;;10150410;28;20082;-58
2021/12/20 19:44:05;;;;;;;26.35;19.13;;;;;;;;;;10153003;28;20075;-58
2021/12/20 19:49:05;;;;;;;40.58;24.90;;;;;;;;;;10147436;28;20607;-57
2021/12/20 19:54:04;;;;;;;32.72;24.23;;;;;;;;;;10146888;28;20324;-53
2021/12/20 19:59:06;;;;;;;43.53;28.20;;;;;;;;;;10148529;28;20066;-57
2021/12/20 20:04:06;;;;;;;26.92;17.70;;;;;;;;;;10146359;28;20510;-57
2021/12/20 20:09:05;;;;;;;28.02;18.10;;;;;;;;;;10150223;28;20069;-57
2021/12/20 20:14:04;;;;;;;23.85;14.18;;;;;;;;;;10151218;28;20070;-58
2021/12/20 20:19:02;;;;;;;23.08;14.23;;;;;;;;;;10144520;28;20065;-58
2021/12/20 20:24:02;;;;;;;16.40;11.48;;;;;;;;;;10150097;28;20066;-52
2021/12/20 20:29:09;;;;;;;18.85;14.50;;;;;;;;;;10141943;28;20146;-53
2021/12/20 20:34:07;;;;;;;14.77;11.40;;;;;;;;;;10149581;28;20077;-56
2021/12/20 20:39:08;;;;;;;24.67;15.40;;;;;;;;;;10142523;28;20088;-55
2021/12/20 20:44:06;;;;;;;17.73;13.63;;;;;;;;;;10144960;28;20076;-56
2021/12/20 20:49:05;;;;;;;16.88;12.32;;;;;;;;;;10149370;28;20096;-58
2021/12/20 20:54:04;;;;;;;23.60;14.32;;;;;;;;;;10150063;28;20078;-56
2021/12/20 20:59:05;;;;;;;16.15;12.50;;;;;;;;;;10145409;28;20062;-55
2021/12/20 21:04:04;;;;;;;26.08;14.93;;;;;;;;;;10141125;28;20069;-51
2021/12/20 21:09:04;;;;;;;22.48;14.00;;;;;;;;;;10140917;28;20604;-56
2021/12/20 21:14:03;;;;;;;18.08;11.75;;;;;;;;;;10151521;28;20505;-56
2021/12/20 21:19:04;;;;;;;13.27;10.02;;;;;;;;;;10148087;28;20062;-56
2021/12/20 21:24:03;;;;;;;25.80;14.70;;;;;;;;;;10144034;28;20094;-56
2021/12/20 21:29:04;;;;;;;15.40;10.57;;;;;;;;;;10143018;28;20142;-56
2021/12/20 21:34:04;;;;;;;15.65;11.25;;;;;;;;;;10148026;28;20515;-57
2021/12/20 21:39:04;;;;;;;13.15;10.10;;;;;;;;;;10151800;28;20062;-57
2021/12/20 21:44:03;;;;;;;19.48;12.65;;;;;;;;;;10151742;28;20073;-57
2021/12/20 21:49:01;;;;;;;15.68;10.98;;;;;;;;;;10154276;28;20085;-56
2021/12/20 21:54:01;;;;;;;15.13;9.60;;;;;;;;;;10156410;28;20100;-58
2021/12/20 21:59:00;;;;;;;11.38;8.70;;;;;;;;;;10165667;28;20073;-57
2021/12/20 22:04:00;;;;;;;14.73;9.90;;;;;;;;;;10158062;28;20058;-58
2021/12/20 22:09:00;;;;;;;9.25;7.70;;;;;;;;;;10158879;28;20065;-58
2021/12/20 22:14:03;;;;;;;12.50;9.48;;;;;;;;;;10158158;28;20245;-57
2021/12/20 22:19:03;;;;;;;13.13;10.55;;;;;;;;;;10157557;28;20607;-54
2021/12/20 22:24:03;;;;;;;11.93;9.18;;;;;;;;;;10157343;28;20077;-58
2021/12/20 22:29:02;;;;;;;13.15;9.15;;;;;;;;;;10156703;28;20093;-57
2021/12/20 22:34:01;;;;;;;9.60;6.97;;;;;;;;;;10156392;28;20135;-54
2021/12/20 22:38:59;;;;;;;13.07;8.60;;;;;;;;;;10157457;28;20077;-57
2021/12/20 22:43:59;;;;;;;9.57;8.40;;;;;;;;;;10157830;28;20111;-58
2021/12/20 22:48:58;;;;;;;11.23;9.02;;;;;;;;;;10163393;28;20089;-56
2021/12/20 22:53:56;;;;;;;11.32;9.20;;;;;;;;;;10156178;28;20144;-56
2021/12/20 22:58:54;;;;;;;17.88;9.85;;;;;;;;;;10157223;28;20062;-57
2021/12/20 23:03:54;;;;;;;10.85;8.93;;;;;;;;;;10156892;28;20062;-57
2021/12/20 23:08:52;;;;;;;8.45;7.53;;;;;;;;;;10172085;28;20085;-57
2021/12/20 23:14:06;;;;;;;8.02;6.45;;;;;;;;;;10155403;28;20066;-58
2021/12/20 23:19:07;;;;;;;13.75;8.77;;;;;;;;;;10156425;28;20038;-57
2021/12/20 23:24:06;;;;;;;13.10;9.88;;;;;;;;;;10156495;28;20080;-56
2021/12/20 23:29:04;;;;;;;15.68;9.85;;;;;;;;;;10155277;28;20061;-55
2021/12/20 23:34:03;;;;;;;16.50;11.25;;;;;;;;;;10153336;28;20167;-57
2021/12/20 23:39:11;;;;;;;10.88;8.80;;;;;;;;;;10154262;28;20070;-57
2021/12/20 23:44:12;;;;;;;9.02;7.85;;;;;;;;;;10149385;28;20077;-57
2021/12/20 23:49:11;;;;;;;11.20;8.20;;;;;;;;;;10153649;28;20065;-56
2021/12/20 23:54:10;;;;;;;10.82;7.78;;;;;;;;;;10153048;28;20073;-58
2021/12/20 23:59:09;;;;;;;8.93;7.95;;;;;;;;;;10149949;28;20069;-55
